Time;durP1;ratioP1;P1;durP2;ratioP2;P2;SDS_P1;SDS_P2;PMS_P1;PMS_P2;Temp;Humidity;BMP_temperature;BMP_pressure;BME280_temperature;BME280_humidity;BME280_pressure;Samples;Min_cycle;Max_cycle;Signal;HPM_P1;HPM_P2
2022/08/07 00:00:27;;;;;;;7.03;6.10;;;;;;;24.33;45.28;94674.75;4982718;28;20243;-62
2022/08/07 00:02:56;;;;;;;6.47;5.88;;;;;;;24.36;45.19;94674.25;4986444;28;20731;-62
2022/08/07 00:05:22;;;;;;;7.15;6.45;;;;;;;24.36;45.28;94671.56;5006157;28;20264;-62
2022/08/07 00:07:48;;;;;;;6.65;6.03;;;;;;;24.32;45.21;94675.78;4983902;28;20330;-62
2022/08/07 00:10:13;;;;;;;6.75;6.05;;;;;;;24.21;45.29;94677.50;4990457;28;20731;-63
2022/08/07 00:12:39;;;;;;;7.15;5.93;;;;;;;24.11;45.02;94670.13;4979596;28;20224;-63
2022/08/07 00:15:05;;;;;;;6.63;5.93;;;;;;;24.18;45.39;94672.63;4974861;28;20231;-62
2022/08/07 00:17:30;;;;;;;7.70;6.30;;;;;;;24.18;45.47;94670.75;4983607;28;20227;-62
2022/08/07 00:19:56;;;;;;;7.22;6.53;;;;;;;24.26;45.21;94676.78;4981308;28;20200;-63
2022/08/07 00:22:21;;;;;;;5.80;5.20;;;;;;;24.11;44.92;94672.81;4982686;28;20351;-63
2022/08/07 00:24:47;;;;;;;5.80;4.93;;;;;;;23.98;45.47;94670.44;4990006;28;20231;-63
2022/08/07 00:27:12;;;;;;;6.38;5.88;;;;;;;24.02;45.53;94666.19;4988471;28;20223;-62
2022/08/07 00:29:37;;;;;;;6.28;5.68;;;;;;;24.02;45.60;94676.94;4984596;28;20227;-63
2022/08/07 00:32:05;;;;;;;10.27;6.85;;;;;;;24.02;45.63;94674.25;4986520;28;20270;-62
2022/08/07 00:34:30;;;;;;;6.22;5.72;;;;;;;24.06;45.61;94680.78;5002056;28;20290;-62
2022/08/07 00:36:56;;;;;;;6.97;5.50;;;;;;;24.06;45.66;94677.25;4992317;28;20223;-63
2022/08/07 00:39:21;;;;;;;6.57;5.47;;;;;;;24.05;45.47;94679.13;4981857;28;20243;-64
2022/08/07 00:41:56;;;;;;;6.28;5.15;;;;;;;24.05;45.44;94673.75;4991001;28;20725;-63
2022/08/07 00:44:22;;;;;;;5.65;5.03;;;;;;;24.01;45.25;94672.63;5004977;28;20198;-61
2022/08/07 00:46:48;;;;;;;6.85;5.88;;;;;;;24.09;44.40;94674.09;4982387;28;20216;-61
2022/08/07 00:49:13;;;;;;;6.40;5.90;;;;;;;24.08;44.94;94672.47;4986371;28;20238;-62
2022/08/07 00:51:39;;;;;;;7.47;5.60;;;;;;;24.01;45.36;94683.38;4989122;28;20358;-61
2022/08/07 00:54:04;;;;;;;7.03;5.70;;;;;;;24.04;45.45;94677.50;4989928;28;20230;-60
2022/08/07 00:56:30;;;;;;;6.07;5.57;;;;;;;23.94;45.58;94682.72;4987577;28;20211;-61
2022/08/07 00:58:57;;;;;;;5.82;5.32;;;;;;;23.92;45.91;94674.09;4989921;28;20207;-62
2022/08/07 01:01:22;;;;;;;7.00;6.03;;;;;;;23.94;46.79;94680.03;4991651;28;20228;-62
2022/08/07 01:03:50;;;;;;;6.78;6.18;;;;;;;24.00;46.71;94687.09;4990464;28;20230;-62
2022/08/07 01:06:16;;;;;;;7.55;6.32;;;;;;;23.84;46.35;94690.59;4972063;28;20230;-61
2022/08/07 01:08:42;;;;;;;5.78;5.38;;;;;;;23.58;46.82;94683.94;4988553;28;20219;-61
2022/08/07 01:11:08;;;;;;;6.18;5.68;;;;;;;23.46;47.24;94689.34;4988194;28;20237;-63
2022/08/07 01:13:34;;;;;;;6.90;6.28;;;;;;;23.54;47.40;94686.28;4990070;28;20319;-62
2022/08/07 01:16:01;;;;;;;5.88;5.38;;;;;;;23.59;46.91;94689.06;4989564;28;20328;-61
2022/08/07 01:18:28;;;;;;;6.70;6.05;;;;;;;23.60;46.82;94677.25;4991502;28;20233;-61
2022/08/07 01:21:08;;;;;;;6.93;5.45;;;;;;;23.53;47.38;94681.97;4984933;28;20227;-61
2022/08/07 01:23:33;;;;;;;6.10;5.50;;;;;;;23.56;47.48;94693.03;4987283;28;20254;-62
2022/08/07 01:26:00;;;;;;;6.63;5.97;;;;;;;23.57;46.82;94701.91;4982269;28;20235;-62
2022/08/07 01:28:25;;;;;;;6.78;6.20;;;;;;;23.59;47.22;94697.13;4980218;28;20271;-61
2022/08/07 01:30:53;;;;;;;7.43;6.82;;;;;;;23.36;48.69;94692.66;4982013;28;20219;-61
2022/08/07 01:33:18;;;;;;;7.60;6.90;;;;;;;23.41;48.56;94700.78;4984217;28;20493;-62
2022/08/07 01:35:44;;;;;;;7.70;7.00;;;;;;;23.61;48.26;94695.00;4986828;28;20317;-61
2022/08/07 01:38:11;;;;;;;7.45;6.80;;;;;;;23.41;48.85;94691.94;4995038;28;20693;-62
2022/08/07 01:40:38;;;;;;;7.15;6.55;;;;;;;23.28;49.51;94703.75;4977150;28;20203;-62
2022/08/07 01:43:04;;;;;;;7.53;6.65;;;;;;;23.31;49.29;94701.44;4993078;28;20269;-61
2022/08/07 01:45:31;;;;;;;7.28;6.68;;;;;;;23.39;49.36;94702.09;4995201;28;20271;-61
2022/08/07 01:47:58;;;;;;;8.10;7.00;;;;;;;23.38;49.17;94701.28;4990256;28;20266;-61
2022/08/07 01:50:25;;;;;;;8.30;7.15;;;;;;;23.36;49.18;94715.97;5005110;28;20277;-61
2022/08/07 01:52:52;;;;;;;8.23;6.90;;;;;;;23.46;48.42;94727.72;4993968;28;20246;-62
2022/08/07 01:55:22;;;;;;;6.80;6.22;;;;;;;23.51;47.80;94729.69;4990330;28;20227;-61
2022/08/07 01:57:49;;;;;;;7.78;7.00;;;;;;;23.59;47.68;94755.34;5000771;28;20741;-61
2022/08/07 02:00:15;;;;;;;6.68;6.13;;;;;;;23.64;47.90;94776.91;4997137;28;20234;-61
2022/08/07 02:02:54;;;;;;;7.50;6.80;;;;;;;23.69;48.01;94788.56;4988784;28;20310;-61
2022/08/07 02:05:26;;;;;;;8.82;6.88;;;;;;;23.64;48.03;94788.47;4987057;28;20207;-60
2022/08/07 02:07:55;;;;;;;8.10;6.68;;;;;;;23.22;49.42;94783.31;4980537;28;20211;-61
2022/08/07 02:10:25;;;;;;;8.68;7.70;;;;;;;23.53;48.79;94795.50;4996876;28;20227;-61
2022/08/07 02:12:53;;;;;;;8.73;7.70;;;;;;;23.60;48.52;94798.03;5002179;28;20608;-62
2022/08/07 02:15:23;;;;;;;7.97;7.25;;;;;;;23.77;48.47;94796.28;5004074;28;20259;-61
2022/08/07 02:17:50;;;;;;;8.25;7.47;;;;;;;23.82;48.54;94803.63;4983698;28;20223;-63
2022/08/07 02:20:18;;;;;;;8.48;7.00;;;;;;;23.73;48.81;94799.66;4986038;28;20203;-62
2022/08/07 02:22:45;;;;;;;10.02;7.55;;;;;;;23.73;50.85;94816.59;4989824;28;20599;-61
2022/08/07 02:25:14;;;;;;;7.85;7.15;;;;;;;23.83;51.16;94810.59;4988819;28;20231;-62
2022/08/07 02:27:41;;;;;;;7.75;6.55;;;;;;;23.73;51.44;94808.53;4994142;28;20223;-60
2022/08/07 02:30:08;;;;;;;8.68;7.70;;;;;;;23.66;51.65;94794.41;4995783;28;20223;-61
2022/08/07 02:32:37;;;;;;;8.85;7.95;;;;;;;23.60;53.50;94776.56;4989025;28;20658;-62
2022/08/07 02:35:04;;;;;;;9.45;8.45;;;;;;;23.58;54.89;94772.53;4993103;28;20626;-62
2022/08/07 02:37:32;;;;;;;8.45;7.45;;;;;;;23.46;54.73;94767.16;4991852;28;20227;-62
2022/08/07 02:40:00;;;;;;;8.20;7.35;;;;;;;23.38;55.17;94756.81;4981464;28;20223;-62
2022/08/07 02:42:26;;;;;;;9.88;8.05;;;;;;;23.24;56.93;94754.41;5015783;28;20238;-62
2022/08/07 02:44:53;;;;;;;8.38;7.68;;;;;;;23.17;57.06;94732.25;4998285;28;20233;-62
2022/08/07 02:47:19;;;;;;;7.38;6.65;;;;;;;23.23;55.48;94725.94;4996701;28;20212;-61
2022/08/07 02:49:44;;;;;;;7.13;6.53;;;;;;;23.27;55.21;94720.91;4992599;28;20217;-62
2022/08/07 02:52:14;;;;;;;8.02;7.32;;;;;;;23.35;56.45;94723.22;4993369;28;20218;-62
2022/08/07 02:54:41;;;;;;;7.22;6.72;;;;;;;23.34;56.20;94722.41;4989995;28;20305;-62
2022/08/07 02:57:10;;;;;;;7.80;7.15;;;;;;;23.28;56.48;94709.97;4988902;28;20244;-62
2022/08/07 02:59:37;;;;;;;7.82;7.00;;;;;;;23.28;56.40;94720.69;4990996;28;20226;-64
2022/08/07 03:02:03;;;;;;;7.30;6.65;;;;;;;23.24;57.07;94716.84;4991246;28;20203;-62
2022/08/07 03:04:29;;;;;;;7.10;6.53;;;;;;;23.24;58.34;94716.03;4991972;28;20235;-62
2022/08/07 03:06:56;;;;;;;8.77;8.07;;;;;;;23.08;59.71;94701.50;4991202;28;20230;-62
2022/08/07 03:09:22;;;;;;;8.93;8.10;;;;;;;23.05;60.70;94705.47;4989458;28;20267;-62
2022/08/07 03:11:47;;;;;;;8.18;7.38;;;;;;;23.01;60.51;94706.97;4986876;28;20224;-62
2022/08/07 03:14:14;;;;;;;7.78;6.75;;;;;;;23.00;60.91;94697.31;4985622;28;20212;-63
2022/08/07 03:16:40;;;;;;;7.40;6.70;;;;;;;23.16;58.92;94694.94;4986071;28;20201;-63
2022/08/07 03:19:06;;;;;;;7.55;6.95;;;;;;;23.03;60.06;94706.75;4984031;28;20238;-62
2022/08/07 03:21:32;;;;;;;7.68;6.97;;;;;;;22.94;59.64;94705.47;4990259;28;20220;-62
2022/08/07 03:23:58;;;;;;;8.57;7.88;;;;;;;22.74;62.55;94703.97;4994264;28;20227;-62
2022/08/07 03:26:28;;;;;;;8.35;7.55;;;;;;;22.79;63.04;94711.31;5008740;28;20209;-63
2022/08/07 03:28:56;;;;;;;8.35;7.65;;;;;;;22.85;62.53;94710.38;4987319;28;20269;-62
2022/08/07 03:31:23;;;;;;;8.35;7.63;;;;;;;23.00;62.58;94715.28;5005187;28;20223;-62
2022/08/07 03:33:58;;;;;;;8.68;7.82;;;;;;;22.88;62.15;94710.72;4990293;28;20308;-62
2022/08/07 03:36:26;;;;;;;8.45;7.75;;;;;;;22.92;62.82;94719.09;4988823;28;20323;-62
2022/08/07 03:38:56;;;;;;;9.43;8.20;;;;;;;22.98;62.77;94715.50;4992366;28;20219;-62
2022/08/07 03:41:22;;;;;;;8.23;7.53;;;;;;;22.98;62.37;94712.81;5004166;28;20195;-62
2022/08/07 03:43:48;;;;;;;8.38;7.78;;;;;;;22.52;63.36;94709.13;5003643;28;20213;-62
2022/08/07 03:46:14;;;;;;;8.90;8.20;;;;;;;22.24;63.45;94713.31;5002273;28;20234;-61
2022/08/07 03:48:40;;;;;;;9.40;7.95;;;;;;;22.34;63.71;94717.25;5004948;28;20307;-62
2022/08/07 03:51:07;;;;;;;9.68;8.88;;;;;;;22.52;64.29;94714.47;5000637;28;20227;-61
2022/08/07 03:53:33;;;;;;;9.48;8.45;;;;;;;22.62;63.55;94727.31;4991477;28;20254;-61
2022/08/07 03:55:59;;;;;;;8.93;7.75;;;;;;;22.64;63.82;94728.69;4991604;28;20242;-61
2022/08/07 03:58:25;;;;;;;8.40;7.70;;;;;;;22.95;62.13;94733.91;5002568;28;20223;-61
2022/08/07 04:00:55;;;;;;;8.98;8.27;;;;;;;22.61;63.43;94739.03;4995788;28;20224;-61
2022/08/07 04:03:21;;;;;;;9.75;8.95;;;;;;;22.18;64.42;94734.78;4984369;28;20224;-61
2022/08/07 04:05:46;;;;;;;8.68;7.85;;;;;;;22.51;63.70;94734.28;4985784;28;20251;-62
2022/08/07 04:08:13;;;;;;;9.15;8.35;;;;;;;22.94;62.59;94733.09;4979627;28;20208;-61
2022/08/07 04:10:42;;;;;;;8.90;8.10;;;;;;;23.01;61.89;94733.78;4978373;28;20208;-62
2022/08/07 04:13:12;;;;;;;8.98;8.27;;;;;;;23.06;61.86;94743.81;4992137;28;20227;-62
2022/08/07 04:15:39;;;;;;;9.15;8.35;;;;;;;23.11;61.66;94743.94;4984639;28;20219;-62
2022/08/07 04:18:05;;;;;;;8.82;8.07;;;;;;;23.12;60.82;94740.19;4993286;28;20625;-62
2022/08/07 04:20:31;;;;;;;9.52;8.48;;;;;;;23.19;60.54;94753.47;4987663;28;20302;-62
2022/08/07 04:22:57;;;;;;;9.20;8.50;;;;;;;23.17;60.42;94752.91;5004947;28;20208;-62
2022/08/07 04:25:24;;;;;;;8.98;8.27;;;;;;;23.20;59.49;94749.72;4988612;28;20315;-61
2022/08/07 04:27:51;;;;;;;9.05;8.35;;;;;;;23.21;60.33;94752.19;4989777;28;20242;-62
2022/08/07 04:30:16;;;;;;;8.95;8.23;;;;;;;23.27;59.28;94759.28;4992240;28;20354;-62
2022/08/07 04:32:42;;;;;;;8.75;7.97;;;;;;;23.23;59.04;94752.78;4989643;28;20315;-62
2022/08/07 04:35:08;;;;;;;8.00;7.30;;;;;;;23.26;58.28;94757.66;4993857;28;20245;-62
2022/08/07 04:37:34;;;;;;;8.38;7.68;;;;;;;23.31;57.66;94765.81;4992134;28;20203;-61
2022/08/07 04:40:00;;;;;;;8.27;7.57;;;;;;;23.31;58.01;94763.13;4988798;28;20223;-62
2022/08/07 04:42:30;;;;;;;8.10;7.40;;;;;;;23.33;58.08;94761.03;4986984;28;20227;-61
2022/08/07 04:44:59;;;;;;;8.98;8.23;;;;;;;23.24;59.03;94765.13;4989944;28;20223;-62
2022/08/07 04:48:03;;;;;;;9.05;8.15;;;;;;;23.39;59.28;94771.84;4989704;28;20227;-61
2022/08/07 04:50:29;;;;;;;8.85;7.97;;;;;;;23.28;59.41;94757.41;4970713;28;20384;-62
2022/08/07 04:53:03;;;;;;;9.13;8.40;;;;;;;23.50;58.81;94762.97;4970677;28;20296;-62
2022/08/07 04:55:42;;;;;;;11.25;8.73;;;;;;;23.50;58.85;94776.38;4968282;28;20291;-61
2022/08/07 04:58:43;;;;;;;8.60;7.90;;;;;;;23.65;58.40;94778.53;4996797;28;20266;-61
2022/08/07 05:01:23;;;;;;;8.93;8.13;;;;;;;23.63;58.55;94784.16;4983133;28;20223;-61
2022/08/07 05:03:56;;;;;;;8.80;8.02;;;;;;;23.78;57.45;94784.47;5003776;28;20218;-61
2022/08/07 05:06:30;;;;;;;8.88;8.13;;;;;;;23.77;58.18;94790.91;4990646;28;20359;-61
2022/08/07 05:09:15;;;;;;;8.73;7.82;;;;;;;23.97;57.00;94792.31;4990654;28;20225;-61
2022/08/07 05:11:47;;;;;;;8.80;8.05;;;;;;;24.03;57.62;94794.06;4984819;28;20246;-61
2022/08/07 05:14:19;;;;;;;9.05;8.25;;;;;;;24.23;56.35;94790.91;5003555;28;20808;-61
2022/08/07 05:16:47;;;;;;;9.05;8.15;;;;;;;24.30;55.80;94794.28;4989948;28;20203;-61
2022/08/07 05:19:18;;;;;;;8.85;8.00;;;;;;;24.15;56.86;94791.31;5004979;28;20230;-62
2022/08/07 05:21:48;;;;;;;9.13;8.30;;;;;;;24.24;56.56;94797.09;4988218;28;20241;-62
2022/08/07 05:24:16;;;;;;;9.60;8.70;;;;;;;24.37;56.58;94797.59;5001857;28;20318;-62
2022/08/07 05:26:42;;;;;;;9.00;8.32;;;;;;;24.36;56.50;94795.16;4973674;28;20596;-61
2022/08/07 05:29:12;;;;;;;8.48;7.80;;;;;;;24.36;54.77;94792.47;4981054;28;20208;-61
2022/08/07 05:31:40;;;;;;;8.98;8.15;;;;;;;24.29;56.47;94803.38;4983912;28;20200;-61
2022/08/07 05:34:09;;;;;;;8.95;8.07;;;;;;;24.24;56.46;94799.78;4975689;28;20252;-61
2022/08/07 05:36:37;;;;;;;9.27;8.40;;;;;;;24.27;56.00;94802.81;4981021;28;20235;-61
2022/08/07 05:39:04;;;;;;;8.55;7.65;;;;;;;24.27;55.33;94799.28;4982326;28;20746;-61
2022/08/07 05:41:30;;;;;;;8.80;7.57;;;;;;;24.30;55.20;94799.66;4987528;28;20230;-61
2022/08/07 05:43:57;;;;;;;8.93;8.15;;;;;;;24.26;56.03;94811.13;4985426;28;20211;-62
2022/08/07 05:46:23;;;;;;;8.52;7.72;;;;;;;24.19;56.58;94819.31;4981335;28;20354;-62
2022/08/07 05:48:50;;;;;;;8.82;8.02;;;;;;;24.32;56.74;94818.19;4982049;28;20231;-62
2022/08/07 05:51:16;;;;;;;8.73;8.02;;;;;;;24.51;56.07;94816.97;4980559;28;20282;-62
2022/08/07 05:53:42;;;;;;;9.10;8.30;;;;;;;24.55;55.81;94820.78;4988600;28;20227;-63
2022/08/07 05:56:09;;;;;;;8.65;8.02;;;;;;;24.64;55.92;94838.16;5003408;28;20218;-63
2022/08/07 05:58:36;;;;;;;8.30;7.70;;;;;;;24.67;55.79;94833.31;4986408;28;20210;-62
2022/08/07 06:01:03;;;;;;;8.52;7.85;;;;;;;24.86;54.51;94835.53;4970059;28;20226;-62
2022/08/07 06:03:29;;;;;;;8.90;8.20;;;;;;;25.04;53.43;94834.44;4982685;28;20242;-62
2022/08/07 06:05:56;;;;;;;8.63;7.90;;;;;;;25.00;53.52;94841.41;4986142;28;20227;-62
2022/08/07 06:08:22;;;;;;;8.05;7.32;;;;;;;25.21;52.93;94842.53;4982827;28;20319;-62
2022/08/07 06:10:49;;;;;;;7.72;7.05;;;;;;;25.18;51.57;94836.81;4984200;28;20207;-63
2022/08/07 06:13:15;;;;;;;7.35;6.75;;;;;;;24.97;51.37;94841.06;4986300;28;20227;-63
2022/08/07 06:15:42;;;;;;;7.28;6.70;;;;;;;25.05;51.10;94836.09;4988349;28;20231;-62
2022/08/07 06:18:08;;;;;;;7.50;6.78;;;;;;;25.06;51.35;94845.78;4995655;28;20225;-62
2022/08/07 06:20:37;;;;;;;7.47;6.97;;;;;;;25.03;51.12;94834.69;5004937;28;20226;-62
2022/08/07 06:23:05;;;;;;;7.32;6.72;;;;;;;24.94;51.48;94846.94;5003509;28;20270;-62
2022/08/07 06:25:32;;;;;;;7.93;7.22;;;;;;;24.95;51.33;94843.19;5006579;28;20218;-62
2022/08/07 06:28:05;;;;;;;7.88;7.20;;;;;;;25.07;51.71;94842.03;5004895;28;21082;-62
2022/08/07 06:30:32;;;;;;;10.38;7.22;;;;;;;25.04;51.08;94839.00;4991808;28;20232;-63
2022/08/07 06:32:57;;;;;;;7.25;6.63;;;;;;;25.04;50.72;94839.00;4984223;28;20286;-64
2022/08/07 06:35:23;;;;;;;7.75;7.05;;;;;;;25.16;50.67;94838.97;4979471;28;20226;-63
2022/08/07 06:37:48;;;;;;;7.47;6.78;;;;;;;25.27;51.25;94844.22;4978238;28;20567;-63
2022/08/07 06:40:14;;;;;;;7.50;6.90;;;;;;;25.35;51.19;94836.81;4971762;28;20251;-62
2022/08/07 06:42:42;;;;;;;7.05;6.55;;;;;;;25.38;49.31;94833.63;4972926;28;20234;-63
2022/08/07 06:45:13;;;;;;;7.15;6.63;;;;;;;25.38;49.45;94836.31;4976283;28;20254;-61
2022/08/07 06:47:39;;;;;;;7.78;6.82;;;;;;;25.36;49.29;94833.03;4981657;28;20224;-63
2022/08/07 06:50:05;;;;;;;7.82;7.10;;;;;;;25.51;49.65;94830.56;4980754;28;20219;-62
2022/08/07 06:52:34;;;;;;;7.93;7.22;;;;;;;25.48;49.45;94831.88;4983341;28;20249;-62
2022/08/07 06:55:00;;;;;;;8.25;7.55;;;;;;;25.74;49.01;94835.69;4973085;28;20224;-63
2022/08/07 06:57:30;;;;;;;8.32;7.63;;;;;;;25.59;48.72;94832.81;4992868;28;20281;-62
2022/08/07 06:59:56;;;;;;;8.13;7.53;;;;;;;25.63;49.22;94833.94;4985857;28;20234;-62
2022/08/07 07:02:24;;;;;;;8.05;7.10;;;;;;;25.73;48.87;94831.38;4976956;28;20212;-62
2022/08/07 07:04:51;;;;;;;8.13;7.43;;;;;;;25.87;48.83;94845.28;4987378;28;20234;-62
2022/08/07 07:07:16;;;;;;;9.00;8.10;;;;;;;25.78;49.76;94841.41;4989091;28;20258;-62
2022/08/07 07:09:46;;;;;;;8.35;7.57;;;;;;;25.82;49.10;94836.31;4985973;28;20389;-62
2022/08/07 07:12:20;;;;;;;8.18;7.55;;;;;;;25.92;47.70;94839.97;4987665;28;20298;-62
2022/08/07 07:14:56;;;;;;;7.93;7.32;;;;;;;26.02;47.81;94833.06;4986695;28;20222;-62
2022/08/07 07:18:00;;;;;;;8.48;7.78;;;;;;;25.91;47.54;94837.53;4984823;28;20211;-62
2022/08/07 07:20:32;;;;;;;8.63;7.93;;;;;;;26.10;47.46;94843.41;4977953;28;20222;-62
2022/08/07 07:22:59;;;;;;;8.15;7.45;;;;;;;26.09;46.97;94839.06;4985190;28;20211;-62
2022/08/07 07:25:25;;;;;;;8.40;7.68;;;;;;;26.21;47.37;94838.94;4981189;28;20282;-62
2022/08/07 07:28:13;;;;;;;8.63;7.82;;;;;;;26.24;46.72;94839.22;4973413;28;20227;-62
2022/08/07 07:30:44;;;;;;;8.32;7.68;;;;;;;26.30;46.25;94834.69;4989511;28;20222;-62
2022/08/07 07:33:13;;;;;;;8.32;7.68;;;;;;;26.16;45.97;94837.00;4977747;28;20247;-62
2022/08/07 07:35:45;;;;;;;8.43;7.65;;;;;;;26.22;45.39;94830.56;4981705;28;20234;-62
2022/08/07 07:38:12;;;;;;;7.90;7.22;;;;;;;26.38;45.29;94834.25;5006487;28;20256;-62
2022/08/07 07:40:40;;;;;;;8.60;7.75;;;;;;;26.39;45.19;94842.09;5008286;28;20211;-62
2022/08/07 07:43:08;;;;;;;8.80;8.05;;;;;;;26.48;45.10;94842.44;4990478;28;20231;-62
2022/08/07 07:45:37;;;;;;;7.38;6.88;;;;;;;26.49;44.29;94843.22;4982391;28;20219;-63
2022/08/07 07:48:05;;;;;;;8.60;7.80;;;;;;;26.60;44.05;94839.63;4991939;28;20310;-62
2022/08/07 07:50:31;;;;;;;8.50;7.80;;;;;;;26.72;43.12;94852.91;4990423;28;20255;-62
2022/08/07 07:52:58;;;;;;;10.52;9.63;;;;;;;26.77;42.79;94844.88;4981923;28;20230;-62
2022/08/07 07:55:26;;;;;;;14.05;12.95;;;;;;;26.76;42.02;94851.34;4993637;28;20224;-62
2022/08/07 07:57:55;;;;;;;13.85;12.43;;;;;;;26.52;42.60;94861.66;4979514;28;20224;-62
2022/08/07 08:00:23;;;;;;;14.23;12.95;;;;;;;26.69;42.00;94856.94;4983495;28;20219;-62
2022/08/07 08:02:52;;;;;;;12.25;11.25;;;;;;;26.79;42.25;94856.22;4984424;28;20527;-62
2022/08/07 08:05:20;;;;;;;12.00;11.00;;;;;;;26.82;42.33;94861.91;4981441;28;20197;-62
2022/08/07 08:07:47;;;;;;;12.35;11.20;;;;;;;26.87;41.51;94854.94;5006165;28;20218;-62
2022/08/07 08:10:14;;;;;;;12.00;11.07;;;;;;;26.93;41.82;94862.00;5003504;28;20605;-61
2022/08/07 08:12:40;;;;;;;11.95;11.07;;;;;;;26.86;42.45;94859.50;5005186;28;20346;-62
2022/08/07 08:15:06;;;;;;;11.27;10.38;;;;;;;26.99;42.03;94860.97;5010113;28;20385;-61
2022/08/07 08:17:34;;;;;;;11.50;10.43;;;;;;;27.15;41.60;94867.28;5010217;28;20226;-62
2022/08/07 08:20:04;;;;;;;10.60;9.70;;;;;;;27.17;41.76;94862.47;4980476;28;20207;-61
2022/08/07 08:28:04;;;;;;;9.18;8.40;;;;;;;27.17;41.07;94846.28;4988746;28;20262;-62
2022/08/07 08:30:33;;;;;;;8.93;8.25;;;;;;;27.22;40.71;94841.72;4974990;28;20259;-61
2022/08/07 08:33:01;;;;;;;9.57;8.77;;;;;;;27.32;40.40;94856.34;4981030;28;20323;-63
2022/08/07 08:35:30;;;;;;;9.25;8.50;;;;;;;27.24;40.93;94844.19;4981637;28;20252;-61
2022/08/07 08:37:58;;;;;;;9.13;8.32;;;;;;;27.34;40.18;94840.72;4977863;28;20204;-62
2022/08/07 08:40:35;;;;;;;8.63;7.90;;;;;;;27.24;40.70;94852.28;4975857;28;20282;-61
2022/08/07 08:43:22;;;;;;;8.48;7.82;;;;;;;27.27;40.57;94867.94;4986175;28;20230;-62
2022/08/07 08:46:07;;;;;;;10.00;8.95;;;;;;;27.27;40.71;94870.66;4993675;28;20223;-61
2022/08/07 08:48:45;;;;;;;8.40;7.80;;;;;;;27.24;40.29;94868.47;5005256;28;20301;-61
2022/08/07 08:51:28;;;;;;;9.15;8.35;;;;;;;27.29;40.02;94873.88;5003227;28;20339;-62
2022/08/07 08:54:05;;;;;;;8.02;7.38;;;;;;;27.52;40.42;94866.47;5007003;28;20226;-62
2022/08/07 08:56:41;;;;;;;8.07;7.38;;;;;;;27.68;39.68;94868.19;4981836;28;20234;-62
2022/08/07 08:59:13;;;;;;;8.43;7.75;;;;;;;27.85;38.88;94865.31;5000242;28;20198;-62
2022/08/07 09:01:49;;;;;;;8.38;7.78;;;;;;;27.88;39.34;94865.63;4981564;28;20230;-60
2022/08/07 09:04:43;;;;;;;8.70;8.10;;;;;;;27.97;39.23;94871.31;4991427;28;20314;-60
2022/08/07 09:07:24;;;;;;;8.48;7.55;;;;;;;28.16;38.68;94863.53;4998201;28;20228;-62
2022/08/07 09:10:09;;;;;;;8.20;7.60;;;;;;;28.29;38.47;94867.63;4999751;28;20236;-62
2022/08/07 09:12:43;;;;;;;8.80;8.05;;;;;;;28.51;37.81;94859.31;4996079;28;20218;-62
2022/08/07 09:15:29;;;;;;;8.70;7.85;;;;;;;28.61;37.94;94856.63;4978492;28;20238;-62
2022/08/07 09:18:26;;;;;;;7.93;7.32;;;;;;;28.72;37.60;94858.25;5000756;28;20318;-61
2022/08/07 09:21:10;;;;;;;8.65;7.95;;;;;;;28.94;37.43;94849.88;4994559;28;20243;-61
2022/08/07 09:24:06;;;;;;;7.93;7.22;;;;;;;28.98;37.33;94845.56;4982776;28;20249;-62
2022/08/07 09:26:31;;;;;;;7.60;7.00;;;;;;;28.98;36.78;94842.84;4974763;28;20278;-61
2022/08/07 09:29:21;;;;;;;8.68;7.88;;;;;;;28.73;37.37;94832.81;4979014;28;20203;-61
2022/08/07 09:31:54;;;;;;;7.90;7.22;;;;;;;29.06;36.55;94832.56;4981849;28;20350;-61
2022/08/07 09:34:39;;;;;;;7.57;6.97;;;;;;;29.30;36.34;94817.38;5000430;28;20558;-62
2022/08/07 09:37:25;;;;;;;7.68;7.18;;;;;;;29.40;35.55;94825.50;4993147;28;20242;-61
2022/08/07 09:40:07;;;;;;;7.57;6.97;;;;;;;29.46;35.78;94826.28;4994825;28;20223;-62
2022/08/07 09:43:07;;;;;;;7.55;6.85;;;;;;;29.69;35.26;94827.59;4997150;28;20231;-62
2022/08/07 09:46:17;;;;;;;6.80;6.40;;;;;;;29.71;34.23;94817.28;5012276;28;20564;-61
2022/08/07 09:48:56;;;;;;;6.95;6.45;;;;;;;29.98;33.64;94816.09;5000200;28;20253;-60
2022/08/07 09:51:54;;;;;;;7.07;6.47;;;;;;;30.13;33.56;94817.94;4980275;28;20230;-61
2022/08/07 09:54:47;;;;;;;6.60;6.10;;;;;;;30.30;33.46;94813.75;4980380;28;20231;-61
2022/08/07 09:57:50;;;;;;;6.78;6.03;;;;;;;30.61;32.56;94820.88;4900404;29;20261;-62
2022/08/07 10:00:20;;;;;;;6.70;6.18;;;;;;;30.50;32.50;94814.72;4908341;29;20230;-62
2022/08/07 10:02:57;;;;;;;6.70;6.20;;;;;;;30.74;32.35;94809.38;4907000;29;20309;-62
2022/08/07 10:06:00;;;;;;;7.20;6.50;;;;;;;30.75;32.29;94798.25;4899187;29;20226;-61
2022/08/07 10:09:08;;;;;;;7.22;6.35;;;;;;;30.25;32.74;94800.22;4891514;29;20230;-61
2022/08/07 10:11:54;;;;;;;6.70;6.20;;;;;;;30.28;34.30;94807.81;4891033;29;20821;-62
2022/08/07 10:14:56;;;;;;;7.97;7.10;;;;;;;30.07;33.31;94798.13;4904033;29;20228;-60
2022/08/07 10:18:05;;;;;;;6.72;6.25;;;;;;;30.14;34.65;94797.84;4906994;29;20221;-60
2022/08/07 10:21:07;;;;;;;6.53;6.03;;;;;;;30.74;33.16;94790.38;4894167;29;20226;-60
2022/08/07 10:24:34;;;;;;;6.78;6.28;;;;;;;31.09;33.08;94788.47;4902570;29;20225;-61
2022/08/07 10:27:30;;;;;;;7.20;6.60;;;;;;;31.17;32.52;94788.69;4889922;29;20233;-62
2022/08/07 10:30:05;;;;;;;6.13;5.68;;;;;;;31.33;32.31;94785.78;4902887;29;20332;-62
2022/08/07 10:32:55;;;;;;;6.00;5.60;;;;;;;30.99;31.77;94786.69;4904143;29;20245;-62
2022/08/07 10:35:29;;;;;;;6.97;6.43;;;;;;;30.86;32.56;94788.13;4955125;28;21001;-61
2022/08/07 10:38:22;;;;;;;6.15;5.65;;;;;;;30.95;32.62;94791.03;4946076;28;20216;-61
2022/08/07 10:40:54;;;;;;;6.85;6.35;;;;;;;30.85;31.46;94791.13;4959777;28;20278;-61
2022/08/07 10:43:28;;;;;;;7.07;6.38;;;;;;;30.82;32.44;94799.84;4968393;28;20220;-62
2022/08/07 10:46:08;;;;;;;6.80;6.18;;;;;;;31.10;31.80;94801.78;4959704;28;20255;-62
2022/08/07 10:48:45;;;;;;;5.88;5.40;;;;;;;31.05;30.40;94798.28;4960459;28;20240;-61
2022/08/07 10:51:13;;;;;;;9.93;6.00;;;;;;;30.94;31.38;94800.28;4967107;28;20223;-61
2022/08/07 10:54:12;;;;;;;7.82;7.03;;;;;;;30.85;34.33;94802.00;4952176;28;20243;-61
2022/08/07 10:56:58;;;;;;;7.28;6.45;;;;;;;30.71;32.49;94801.81;4967393;28;20219;-62
2022/08/07 10:59:57;;;;;;;8.60;5.55;;;;;;;31.14;31.38;94800.13;4987325;28;20211;-62
2022/08/07 11:02:38;;;;;;;9.10;8.48;;;;;;;31.11;31.93;94794.44;4996822;28;20291;-61
2022/08/07 11:05:25;;;;;;;7.57;6.88;;;;;;;31.17;33.33;94790.59;4981000;28;20651;-62
2022/08/07 11:08:17;;;;;;;7.68;6.88;;;;;;;31.07;32.30;94791.47;5009411;28;20227;-62
2022/08/07 11:10:58;;;;;;;6.70;5.95;;;;;;;31.19;31.90;94793.81;4992699;28;20231;-61
2022/08/07 11:13:50;;;;;;;9.88;9.05;;;;;;;31.06;32.42;94798.03;5008812;28;20226;-61
2022/08/07 11:16:27;;;;;;;133.02;120.47;;;;;;;30.93;33.02;94796.78;4986647;28;20223;-63
2022/08/07 11:19:16;;;;;;;27.27;24.63;;;;;;;30.64;31.96;94801.34;4976837;28;20438;-62
2022/08/07 11:21:50;;;;;;;37.17;33.67;;;;;;;31.23;31.79;94794.06;4999185;28;20317;-62
2022/08/07 11:24:39;;;;;;;14.55;13.15;;;;;;;32.06;30.15;94792.84;5006628;28;20222;-60
2022/08/07 11:27:37;;;;;;;7.40;6.80;;;;;;;32.68;29.02;94800.94;5002527;28;20417;-62
2022/08/07 11:30:05;;;;;;;7.60;6.90;;;;;;;32.98;29.00;94790.66;4996810;28;20238;-62
2022/08/07 11:33:00;;;;;;;7.80;7.07;;;;;;;33.35;28.11;94784.31;5005621;28;20215;-61
2022/08/07 11:35:34;;;;;;;8.35;7.55;;;;;;;33.34;28.41;94788.94;4985795;28;20236;-63
2022/08/07 11:38:10;;;;;;;8.18;7.30;;;;;;;33.13;29.26;94791.22;4990618;28;20569;-61
2022/08/07 11:40:57;;;;;;;7.60;6.90;;;;;;;32.99;29.31;94793.09;4982894;28;20223;-62
2022/08/07 11:43:51;;;;;;;6.45;5.95;;;;;;;32.61;28.40;94790.47;4982477;28;20295;-62
2022/08/07 11:47:02;;;;;;;8.15;7.47;;;;;;;32.41;28.55;94796.16;4984317;28;20231;-62
2022/08/07 11:50:14;;;;;;;7.88;7.28;;;;;;;32.41;29.57;94805.13;4984081;28;20362;-61
2022/08/07 11:53:08;;;;;;;8.02;7.32;;;;;;;32.34;29.82;94804.69;4983307;28;20318;-61
2022/08/07 11:56:12;;;;;;;7.10;6.60;;;;;;;32.46;30.33;94810.50;4983425;28;20246;-62
2022/08/07 11:59:05;;;;;;;10.52;9.57;;;;;;;33.53;28.46;94804.41;4989560;28;20223;-62
2022/08/07 12:01:52;;;;;;;7.50;6.80;;;;;;;33.76;27.95;94808.91;5004058;28;20223;-61
2022/08/07 12:04:33;;;;;;;6.90;6.30;;;;;;;33.67;27.95;94807.97;5010979;28;20237;-61